sensor_id;sensor_type;location;lat;lon;timestamp;P1;durP1;ratioP1;P2;durP2;ratioP2
9238;SDS011;4654;43.242;27.976;2024-03-02T00:00:50;16.47;;;7.43;;
9238;SDS011;4654;43.242;27.976;2024-03-02T00:03:18;14.60;;;6.90;;
9238;SDS011;4654;43.242;27.976;2024-03-02T00:05:49;19.97;;;7.00;;
9238;SDS011;4654;43.242;27.976;2024-03-02T00:08:19;15.80;;;6.20;;
9238;SDS011;4654;43.242;27.976;2024-03-02T00:10:53;15.17;;;6.67;;
9238;SDS011;4654;43.242;27.976;2024-03-02T00:13:24;13.70;;;6.70;;
9238;SDS011;4654;43.242;27.976;2024-03-02T00:15:53;17.07;;;7.10;;
9238;SDS011;4654;43.242;27.976;2024-03-02T00:18:21;16.27;;;6.90;;
9238;SDS011;4654;43.242;27.976;2024-03-02T00:20:52;11.33;;;6.23;;
9238;SDS011;4654;43.242;27.976;2024-03-02T00:23:22;16.47;;;6.93;;
9238;SDS011;4654;43.242;27.976;2024-03-02T00:25:50;12.13;;;6.20;;
9238;SDS011;4654;43.242;27.976;2024-03-02T00:28:21;17.07;;;7.00;;
9238;SDS011;4654;43.242;27.976;2024-03-02T00:30:55;12.80;;;6.40;;
9238;SDS011;4654;43.242;27.976;2024-03-02T00:33:25;14.77;;;6.30;;
9238;SDS011;4654;43.242;27.976;2024-03-02T00:35:53;14.83;;;6.23;;
9238;SDS011;4654;43.242;27.976;2024-03-02T00:38:20;15.57;;;6.67;;
9238;SDS011;4654;43.242;27.976;2024-03-02T00:40:47;14.13;;;6.60;;
9238;SDS011;4654;43.242;27.976;2024-03-02T00:46:09;14.33;;;6.57;;
9238;SDS011;4654;43.242;27.976;2024-03-02T00:48:38;18.53;;;7.30;;
9238;SDS011;4654;43.242;27.976;2024-03-02T00:51:06;16.17;;;7.57;;
9238;SDS011;4654;43.242;27.976;2024-03-02T00:53:34;15.13;;;6.97;;
9238;SDS011;4654;43.242;27.976;2024-03-02T00:56:01;15.40;;;7.20;;
9238;SDS011;4654;43.242;27.976;2024-03-02T00:58:29;15.87;;;7.50;;
9238;SDS011;4654;43.242;27.976;2024-03-02T01:00:58;13.93;;;6.50;;
9238;SDS011;4654;43.242;27.976;2024-03-02T01:03:25;17.70;;;7.70;;
9238;SDS011;4654;43.242;27.976;2024-03-02T01:05:52;16.00;;;6.80;;
9238;SDS011;4654;43.242;27.976;2024-03-02T01:08:19;17.13;;;7.57;;
9238;SDS011;4654;43.242;27.976;2024-03-02T01:10:46;18.70;;;7.33;;
9238;SDS011;4654;43.242;27.976;2024-03-02T01:13:13;17.67;;;7.00;;
9238;SDS011;4654;43.242;27.976;2024-03-02T01:15:41;21.03;;;7.63;;
9238;SDS011;4654;43.242;27.976;2024-03-02T01:18:10;19.13;;;8.17;;
9238;SDS011;4654;43.242;27.976;2024-03-02T01:20:37;19.93;;;7.43;;
9238;SDS011;4654;43.242;27.976;2024-03-02T01:23:04;16.20;;;7.37;;
9238;SDS011;4654;43.242;27.976;2024-03-02T01:25:32;19.40;;;9.10;;
9238;SDS011;4654;43.242;27.976;2024-03-02T01:27:59;18.17;;;8.50;;
9238;SDS011;4654;43.242;27.976;2024-03-02T01:30:26;16.77;;;7.93;;
9238;SDS011;4654;43.242;27.976;2024-03-02T01:32:53;17.17;;;7.90;;
9238;SDS011;4654;43.242;27.976;2024-03-02T01:35:22;17.13;;;7.50;;
9238;SDS011;4654;43.242;27.976;2024-03-02T01:37:49;16.07;;;7.17;;
9238;SDS011;4654;43.242;27.976;2024-03-02T01:40:16;18.57;;;7.70;;
9238;SDS011;4654;43.242;27.976;2024-03-02T01:42:43;16.30;;;8.23;;
9238;SDS011;4654;43.242;27.976;2024-03-02T01:45:10;18.17;;;8.27;;
9238;SDS011;4654;43.242;27.976;2024-03-02T01:47:37;22.70;;;8.37;;
9238;SDS011;4654;43.242;27.976;2024-03-02T01:50:05;14.20;;;7.70;;
9238;SDS011;4654;43.242;27.976;2024-03-02T01:52:35;16.70;;;8.47;;
9238;SDS011;4654;43.242;27.976;2024-03-02T01:55:03;19.20;;;7.93;;
9238;SDS011;4654;43.242;27.976;2024-03-02T01:57:31;17.13;;;8.13;;
9238;SDS011;4654;43.242;27.976;2024-03-02T01:59:58;17.57;;;8.10;;
9238;SDS011;4654;43.242;27.976;2024-03-02T02:02:26;18.73;;;8.30;;
9238;SDS011;4654;43.242;27.976;2024-03-02T02:04:54;17.80;;;8.00;;
9238;SDS011;4654;43.242;27.976;2024-03-02T02:07:21;18.47;;;8.13;;
9238;SDS011;4654;43.242;27.976;2024-03-02T02:09:49;20.23;;;8.43;;
9238;SDS011;4654;43.242;27.976;2024-03-02T02:12:17;20.60;;;8.50;;
9238;SDS011;4654;43.242;27.976;2024-03-02T02:14:47;19.73;;;8.17;;
9238;SDS011;4654;43.242;27.976;2024-03-02T02:17:15;18.97;;;8.37;;
9238;SDS011;4654;43.242;27.976;2024-03-02T02:19:42;24.47;;;8.00;;
9238;SDS011;4654;43.242;27.976;2024-03-02T02:22:11;15.93;;;8.10;;
9238;SDS011;4654;43.242;27.976;2024-03-02T02:24:39;15.27;;;8.43;;
9238;SDS011;4654;43.242;27.976;2024-03-02T02:27:07;19.17;;;7.37;;
9238;SDS011;4654;43.242;27.976;2024-03-02T02:29:35;18.67;;;7.93;;
9238;SDS011;4654;43.242;27.976;2024-03-02T02:32:03;19.20;;;8.23;;
9238;SDS011;4654;43.242;27.976;2024-03-02T02:34:30;17.50;;;8.30;;
9238;SDS011;4654;43.242;27.976;2024-03-02T02:36:57;17.23;;;8.00;;
9238;SDS011;4654;43.242;27.976;2024-03-02T02:39:26;18.13;;;7.33;;
9238;SDS011;4654;43.242;27.976;2024-03-02T02:41:53;16.87;;;7.70;;
9238;SDS011;4654;43.242;27.976;2024-03-02T02:44:20;19.30;;;8.17;;
9238;SDS011;4654;43.242;27.976;2024-03-02T02:46:48;21.23;;;8.50;;
9238;SDS011;4654;43.242;27.976;2024-03-02T02:49:15;20.63;;;8.23;;
9238;SDS011;4654;43.242;27.976;2024-03-02T02:51:43;17.17;;;8.10;;
9238;SDS011;4654;43.242;27.976;2024-03-02T02:54:10;18.33;;;8.20;;
9238;SDS011;4654;43.242;27.976;2024-03-02T02:56:38;20.33;;;8.23;;
9238;SDS011;4654;43.242;27.976;2024-03-02T02:59:06;17.23;;;7.67;;
9238;SDS011;4654;43.242;27.976;2024-03-02T03:01:33;17.37;;;7.50;;
9238;SDS011;4654;43.242;27.976;2024-03-02T03:04:00;18.00;;;8.17;;
9238;SDS011;4654;43.242;27.976;2024-03-02T03:06:27;12.70;;;8.17;;
9238;SDS011;4654;43.242;27.976;2024-03-02T03:08:54;20.10;;;8.30;;
9238;SDS011;4654;43.242;27.976;2024-03-02T03:11:22;21.23;;;8.57;;
9238;SDS011;4654;43.242;27.976;2024-03-02T03:13:53;17.73;;;7.90;;
9238;SDS011;4654;43.242;27.976;2024-03-02T03:16:20;18.13;;;8.20;;
9238;SDS011;4654;43.242;27.976;2024-03-02T03:18:48;20.73;;;8.83;;
9238;SDS011;4654;43.242;27.976;2024-03-02T03:21:16;19.23;;;8.60;;
9238;SDS011;4654;43.242;27.976;2024-03-02T03:23:44;18.50;;;8.23;;
9238;SDS011;4654;43.242;27.976;2024-03-02T03:26:11;16.07;;;8.57;;
9238;SDS011;4654;43.242;27.976;2024-03-02T03:28:38;19.77;;;8.63;;
9238;SDS011;4654;43.242;27.976;2024-03-02T03:31:07;18.47;;;7.63;;
9238;SDS011;4654;43.242;27.976;2024-03-02T03:33:34;20.53;;;8.33;;
9238;SDS011;4654;43.242;27.976;2024-03-02T03:36:01;14.33;;;7.87;;
9238;SDS011;4654;43.242;27.976;2024-03-02T03:38:29;22.10;;;8.63;;
9238;SDS011;4654;43.242;27.976;2024-03-02T03:40:56;18.37;;;8.57;;
9238;SDS011;4654;43.242;27.976;2024-03-02T03:43:23;13.97;;;7.17;;
9238;SDS011;4654;43.242;27.976;2024-03-02T03:45:51;13.63;;;7.80;;
9238;SDS011;4654;43.242;27.976;2024-03-02T03:48:20;20.40;;;8.10;;
9238;SDS011;4654;43.242;27.976;2024-03-02T03:50:47;24.00;;;7.77;;
9238;SDS011;4654;43.242;27.976;2024-03-02T03:53:14;17.17;;;7.53;;
9238;SDS011;4654;43.242;27.976;2024-03-02T03:55:41;14.97;;;7.57;;
9238;SDS011;4654;43.242;27.976;2024-03-02T03:58:08;16.43;;;7.63;;
9238;SDS011;4654;43.242;27.976;2024-03-02T04:00:35;18.60;;;8.07;;
9238;SDS011;4654;43.242;27.976;2024-03-02T04:03:03;14.57;;;8.37;;
9238;SDS011;4654;43.242;27.976;2024-03-02T04:05:32;20.30;;;7.47;;
9238;SDS011;4654;43.242;27.976;2024-03-02T04:07:59;15.83;;;8.07;;
9238;SDS011;4654;43.242;27.976;2024-03-02T04:10:26;15.33;;;7.43;;
9238;SDS011;4654;43.242;27.976;2024-03-02T04:12:53;17.27;;;8.07;;
9238;SDS011;4654;43.242;27.976;2024-03-02T04:15:20;14.73;;;6.90;;
9238;SDS011;4654;43.242;27.976;2024-03-02T04:17:48;16.40;;;7.70;;
9238;SDS011;4654;43.242;27.976;2024-03-02T04:20:15;14.30;;;7.67;;
9238;SDS011;4654;43.242;27.976;2024-03-02T04:22:44;14.77;;;7.03;;
9238;SDS011;4654;43.242;27.976;2024-03-02T04:25:11;20.33;;;7.77;;
9238;SDS011;4654;43.242;27.976;2024-03-02T04:27:38;21.03;;;7.73;;
9238;SDS011;4654;43.242;27.976;2024-03-02T04:30:06;15.37;;;7.27;;
9238;SDS011;4654;43.242;27.976;2024-03-02T04:32:34;16.17;;;8.07;;
9238;SDS011;4654;43.242;27.976;2024-03-02T04:35:01;17.23;;;7.73;;
9238;SDS011;4654;43.242;27.976;2024-03-02T04:37:29;19.00;;;8.00;;
9238;SDS011;4654;43.242;27.976;2024-03-02T04:39:57;21.80;;;8.83;;
9238;SDS011;4654;43.242;27.976;2024-03-02T04:42:25;16.40;;;8.40;;
9238;SDS011;4654;43.242;27.976;2024-03-02T04:44:52;18.93;;;9.20;;
9238;SDS011;4654;43.242;27.976;2024-03-02T04:47:19;19.67;;;9.43;;
9238;SDS011;4654;43.242;27.976;2024-03-02T04:49:46;25.73;;;11.10;;
9238;SDS011;4654;43.242;27.976;2024-03-02T04:52:13;22.33;;;11.40;;
9238;SDS011;4654;43.242;27.976;2024-03-02T04:54:41;21.03;;;10.57;;
9238;SDS011;4654;43.242;27.976;2024-03-02T04:57:23;19.43;;;8.07;;
9238;SDS011;4654;43.242;27.976;2024-03-02T04:59:50;14.77;;;7.63;;
9238;SDS011;4654;43.242;27.976;2024-03-02T05:02:17;12.43;;;7.17;;
9238;SDS011;4654;43.242;27.976;2024-03-02T05:04:44;16.17;;;8.23;;
9238;SDS011;4654;43.242;27.976;2024-03-02T05:07:13;19.73;;;8.10;;
9238;SDS011;4654;43.242;27.976;2024-03-02T05:09:40;15.30;;;8.23;;
9238;SDS011;4654;43.242;27.976;2024-03-02T05:12:07;13.03;;;7.70;;
9238;SDS011;4654;43.242;27.976;2024-03-02T05:15:01;18.90;;;8.20;;
9238;SDS011;4654;43.242;27.976;2024-03-02T05:17:29;20.43;;;8.70;;
9238;SDS011;4654;43.242;27.976;2024-03-02T05:19:56;18.67;;;7.63;;
9238;SDS011;4654;43.242;27.976;2024-03-02T05:22:23;13.10;;;7.70;;
9238;SDS011;4654;43.242;27.976;2024-03-02T05:24:51;17.53;;;8.80;;
9238;SDS011;4654;43.242;27.976;2024-03-02T05:27:18;15.60;;;7.70;;
9238;SDS011;4654;43.242;27.976;2024-03-02T05:29:45;16.33;;;8.60;;
9238;SDS011;4654;43.242;27.976;2024-03-02T05:32:13;13.97;;;7.97;;
9238;SDS011;4654;43.242;27.976;2024-03-02T05:34:41;18.10;;;7.63;;
9238;SDS011;4654;43.242;27.976;2024-03-02T05:37:08;18.30;;;9.07;;
9238;SDS011;4654;43.242;27.976;2024-03-02T05:39:35;21.27;;;7.80;;
9238;SDS011;4654;43.242;27.976;2024-03-02T05:42:02;15.40;;;7.27;;
9238;SDS011;4654;43.242;27.976;2024-03-02T05:44:29;15.27;;;7.67;;
9238;SDS011;4654;43.242;27.976;2024-03-02T05:46:57;15.33;;;6.97;;
9238;SDS011;4654;43.242;27.976;2024-03-02T05:49:26;20.07;;;9.07;;
9238;SDS011;4654;43.242;27.976;2024-03-02T05:51:53;12.80;;;7.53;;
9238;SDS011;4654;43.242;27.976;2024-03-02T05:54:20;14.07;;;7.07;;
9238;SDS011;4654;43.242;27.976;2024-03-02T05:56:47;16.57;;;7.67;;
9238;SDS011;4654;43.242;27.976;2024-03-02T05:59:15;13.17;;;7.50;;
9238;SDS011;4654;43.242;27.976;2024-03-02T06:01:43;13.50;;;7.37;;
9238;SDS011;4654;43.242;27.976;2024-03-02T06:04:11;13.90;;;7.77;;
9238;SDS011;4654;43.242;27.976;2024-03-02T06:06:40;12.40;;;7.40;;
9238;SDS011;4654;43.242;27.976;2024-03-02T06:09:08;12.83;;;6.57;;
9238;SDS011;4654;43.242;27.976;2024-03-02T06:11:37;10.73;;;6.90;;
9238;SDS011;4654;43.242;27.976;2024-03-02T06:14:07;12.07;;;6.33;;
9238;SDS011;4654;43.242;27.976;2024-03-02T06:16:35;9.10;;;5.90;;
9238;SDS011;4654;43.242;27.976;2024-03-02T06:19:02;20.93;;;6.27;;
9238;SDS011;4654;43.242;27.976;2024-03-02T06:21:29;14.33;;;6.43;;
9238;SDS011;4654;43.242;27.976;2024-03-02T06:23:58;17.03;;;5.90;;
9238;SDS011;4654;43.242;27.976;2024-03-02T06:26:26;12.27;;;6.90;;
9238;SDS011;4654;43.242;27.976;2024-03-02T06:28:55;14.57;;;6.80;;
9238;SDS011;4654;43.242;27.976;2024-03-02T06:31:22;10.93;;;6.27;;
9238;SDS011;4654;43.242;27.976;2024-03-02T06:33:49;10.97;;;6.13;;
9238;SDS011;4654;43.242;27.976;2024-03-02T06:36:16;9.50;;;6.00;;
9238;SDS011;4654;43.242;27.976;2024-03-02T06:38:43;11.57;;;6.17;;
9238;SDS011;4654;43.242;27.976;2024-03-02T06:41:12;10.37;;;6.33;;
9238;SDS011;4654;43.242;27.976;2024-03-02T06:43:39;11.07;;;6.63;;
9238;SDS011;4654;43.242;27.976;2024-03-02T06:46:06;16.77;;;6.27;;
9238;SDS011;4654;43.242;27.976;2024-03-02T06:48:34;10.13;;;5.83;;
9238;SDS011;4654;43.242;27.976;2024-03-02T06:51:02;13.03;;;5.67;;
9238;SDS011;4654;43.242;27.976;2024-03-02T06:53:29;10.67;;;5.80;;
9238;SDS011;4654;43.242;27.976;2024-03-02T06:55:58;12.47;;;6.37;;
9238;SDS011;4654;43.242;27.976;2024-03-02T06:58:27;13.80;;;5.87;;
9238;SDS011;4654;43.242;27.976;2024-03-02T07:00:54;11.77;;;5.60;;
9238;SDS011;4654;43.242;27.976;2024-03-02T07:03:21;12.30;;;5.90;;
9238;SDS011;4654;43.242;27.976;2024-03-02T07:05:48;12.53;;;6.50;;
9238;SDS011;4654;43.242;27.976;2024-03-02T07:08:16;10.13;;;6.00;;
9238;SDS011;4654;43.242;27.976;2024-03-02T07:10:43;10.47;;;5.73;;
9238;SDS011;4654;43.242;27.976;2024-03-02T07:13:10;10.40;;;6.00;;
9238;SDS011;4654;43.242;27.976;2024-03-02T07:15:39;11.87;;;5.87;;
9238;SDS011;4654;43.242;27.976;2024-03-02T07:18:31;10.37;;;6.37;;
9238;SDS011;4654;43.242;27.976;2024-03-02T07:20:57;9.40;;;6.07;;
9238;SDS011;4654;43.242;27.976;2024-03-02T07:23:26;10.87;;;5.63;;
9238;SDS011;4654;43.242;27.976;2024-03-02T07:25:53;12.40;;;6.23;;
9238;SDS011;4654;43.242;27.976;2024-03-02T07:28:21;10.10;;;5.97;;
9238;SDS011;4654;43.242;27.976;2024-03-02T07:30:58;9.03;;;5.40;;
9238;SDS011;4654;43.242;27.976;2024-03-02T07:33:26;9.60;;;5.63;;
9238;SDS011;4654;43.242;27.976;2024-03-02T07:35:53;15.50;;;6.60;;
9238;SDS011;4654;43.242;27.976;2024-03-02T07:38:21;15.60;;;6.90;;
9238;SDS011;4654;43.242;27.976;2024-03-02T07:40:48;11.23;;;5.90;;
9238;SDS011;4654;43.242;27.976;2024-03-02T07:43:16;13.30;;;6.27;;
9238;SDS011;4654;43.242;27.976;2024-03-02T07:45:44;12.93;;;6.20;;
9238;SDS011;4654;43.242;27.976;2024-03-02T07:48:13;7.27;;;5.70;;
9238;SDS011;4654;43.242;27.976;2024-03-02T07:50:40;10.80;;;5.77;;
9238;SDS011;4654;43.242;27.976;2024-03-02T07:53:08;9.43;;;5.83;;
9238;SDS011;4654;43.242;27.976;2024-03-02T07:55:35;13.47;;;6.43;;
9238;SDS011;4654;43.242;27.976;2024-03-02T07:58:02;13.57;;;5.67;;
9238;SDS011;4654;43.242;27.976;2024-03-02T08:00:30;9.40;;;6.03;;
9238;SDS011;4654;43.242;27.976;2024-03-02T08:02:57;11.70;;;5.47;;
9238;SDS011;4654;43.242;27.976;2024-03-02T08:05:26;10.17;;;5.57;;
9238;SDS011;4654;43.242;27.976;2024-03-02T08:07:54;9.67;;;5.43;;
9238;SDS011;4654;43.242;27.976;2024-03-02T08:10:21;14.63;;;6.43;;
9238;SDS011;4654;43.242;27.976;2024-03-02T08:12:48;14.27;;;7.90;;
9238;SDS011;4654;43.242;27.976;2024-03-02T08:15:15;15.83;;;7.07;;
9238;SDS011;4654;43.242;27.976;2024-03-02T08:17:42;10.73;;;6.53;;
9238;SDS011;4654;43.242;27.976;2024-03-02T08:20:14;11.10;;;5.93;;
9238;SDS011;4654;43.242;27.976;2024-03-02T08:22:44;9.20;;;5.43;;
9238;SDS011;4654;43.242;27.976;2024-03-02T08:25:12;12.77;;;6.00;;
9238;SDS011;4654;43.242;27.976;2024-03-02T08:27:39;14.27;;;6.47;;
9238;SDS011;4654;43.242;27.976;2024-03-02T08:30:07;12.17;;;5.90;;
9238;SDS011;4654;43.242;27.976;2024-03-02T08:32:36;11.77;;;5.90;;
9238;SDS011;4654;43.242;27.976;2024-03-02T08:35:03;9.73;;;5.67;;
9238;SDS011;4654;43.242;27.976;2024-03-02T08:37:31;12.80;;;6.20;;
9238;SDS011;4654;43.242;27.976;2024-03-02T08:40:00;11.07;;;5.50;;
9238;SDS011;4654;43.242;27.976;2024-03-02T08:42:29;8.93;;;5.37;;
9238;SDS011;4654;43.242;27.976;2024-03-02T08:44:56;11.47;;;5.73;;
9238;SDS011;4654;43.242;27.976;2024-03-02T08:47:26;14.07;;;5.07;;
9238;SDS011;4654;43.242;27.976;2024-03-02T08:49:53;9.87;;;5.23;;
9238;SDS011;4654;43.242;27.976;2024-03-02T08:52:20;9.40;;;5.13;;
9238;SDS011;4654;43.242;27.976;2024-03-02T08:54:47;11.63;;;5.37;;
9238;SDS011;4654;43.242;27.976;2024-03-02T08:57:16;12.13;;;5.73;;
9238;SDS011;4654;43.242;27.976;2024-03-02T08:59:43;9.63;;;4.77;;
9238;SDS011;4654;43.242;27.976;2024-03-02T09:02:11;9.90;;;5.57;;
9238;SDS011;4654;43.242;27.976;2024-03-02T09:04:38;11.30;;;5.33;;
9238;SDS011;4654;43.242;27.976;2024-03-02T09:07:05;10.40;;;5.47;;
9238;SDS011;4654;43.242;27.976;2024-03-02T09:09:33;9.63;;;4.80;;
9238;SDS011;4654;43.242;27.976;2024-03-02T09:12:00;9.70;;;4.87;;
9238;SDS011;4654;43.242;27.976;2024-03-02T09:14:29;8.40;;;5.00;;
9238;SDS011;4654;43.242;27.976;2024-03-02T09:16:57;6.53;;;4.30;;
9238;SDS011;4654;43.242;27.976;2024-03-02T09:19:24;10.13;;;4.90;;
9238;SDS011;4654;43.242;27.976;2024-03-02T09:21:51;10.93;;;5.00;;
9238;SDS011;4654;43.242;27.976;2024-03-02T09:24:20;10.83;;;5.33;;
9238;SDS011;4654;43.242;27.976;2024-03-02T09:26:48;9.73;;;4.83;;
9238;SDS011;4654;43.242;27.976;2024-03-02T09:29:15;7.93;;;4.53;;
9238;SDS011;4654;43.242;27.976;2024-03-02T09:31:44;8.40;;;4.37;;
9238;SDS011;4654;43.242;27.976;2024-03-02T09:34:11;10.00;;;4.80;;
9238;SDS011;4654;43.242;27.976;2024-03-02T09:36:39;9.73;;;4.73;;
9238;SDS011;4654;43.242;27.976;2024-03-02T09:39:07;7.67;;;4.20;;
9238;SDS011;4654;43.242;27.976;2024-03-02T09:41:34;10.00;;;4.63;;
9238;SDS011;4654;43.242;27.976;2024-03-02T09:44:03;12.73;;;5.10;;
9238;SDS011;4654;43.242;27.976;2024-03-02T09:46:31;6.97;;;4.17;;
9238;SDS011;4654;43.242;27.976;2024-03-02T09:49:00;7.77;;;4.30;;
9238;SDS011;4654;43.242;27.976;2024-03-02T09:51:27;10.07;;;4.17;;
9238;SDS011;4654;43.242;27.976;2024-03-02T09:53:54;12.00;;;5.30;;
9238;SDS011;4654;43.242;27.976;2024-03-02T09:56:22;8.83;;;5.50;;
9238;SDS011;4654;43.242;27.976;2024-03-02T09:58:49;13.47;;;4.70;;
9238;SDS011;4654;43.242;27.976;2024-03-02T10:01:17;8.37;;;4.87;;
9238;SDS011;4654;43.242;27.976;2024-03-02T10:03:44;7.67;;;3.93;;
9238;SDS011;4654;43.242;27.976;2024-03-02T10:06:19;11.60;;;4.90;;
9238;SDS011;4654;43.242;27.976;2024-03-02T10:08:47;12.13;;;5.20;;
9238;SDS011;4654;43.242;27.976;2024-03-02T10:11:28;7.93;;;4.77;;
9238;SDS011;4654;43.242;27.976;2024-03-02T10:14:05;10.47;;;4.50;;
9238;SDS011;4654;43.242;27.976;2024-03-02T10:16:35;10.03;;;5.37;;
9238;SDS011;4654;43.242;27.976;2024-03-02T10:19:16;10.77;;;5.50;;
9238;SDS011;4654;43.242;27.976;2024-03-02T10:21:45;10.17;;;5.20;;
9238;SDS011;4654;43.242;27.976;2024-03-02T10:24:13;12.90;;;5.70;;
9238;SDS011;4654;43.242;27.976;2024-03-02T10:26:40;9.53;;;5.00;;
9238;SDS011;4654;43.242;27.976;2024-03-02T10:29:08;8.23;;;4.97;;
9238;SDS011;4654;43.242;27.976;2024-03-02T10:31:36;10.47;;;4.90;;
9238;SDS011;4654;43.242;27.976;2024-03-02T10:34:04;8.77;;;5.23;;
9238;SDS011;4654;43.242;27.976;2024-03-02T10:36:32;16.87;;;5.50;;
9238;SDS011;4654;43.242;27.976;2024-03-02T10:39:03;11.10;;;6.30;;
9238;SDS011;4654;43.242;27.976;2024-03-02T10:41:32;11.43;;;5.90;;
9238;SDS011;4654;43.242;27.976;2024-03-02T10:44:02;10.23;;;5.73;;
9238;SDS011;4654;43.242;27.976;2024-03-02T10:46:30;12.33;;;5.53;;
9238;SDS011;4654;43.242;27.976;2024-03-02T10:48:58;14.90;;;5.53;;
9238;SDS011;4654;43.242;27.976;2024-03-02T10:51:27;10.43;;;5.07;;
9238;SDS011;4654;43.242;27.976;2024-03-02T10:53:57;11.73;;;5.77;;
9238;SDS011;4654;43.242;27.976;2024-03-02T10:56:29;10.87;;;6.07;;
9238;SDS011;4654;43.242;27.976;2024-03-02T10:59:02;10.00;;;5.07;;
9238;SDS011;4654;43.242;27.976;2024-03-02T11:01:32;14.63;;;5.93;;
9238;SDS011;4654;43.242;27.976;2024-03-02T11:04:01;12.70;;;7.77;;
9238;SDS011;4654;43.242;27.976;2024-03-02T11:06:30;11.60;;;5.40;;
9238;SDS011;4654;43.242;27.976;2024-03-02T11:09:04;8.77;;;5.40;;
9238;SDS011;4654;43.242;27.976;2024-03-02T11:11:37;13.53;;;6.97;;
9238;SDS011;4654;43.242;27.976;2024-03-02T11:14:10;10.27;;;5.97;;
9238;SDS011;4654;43.242;27.976;2024-03-02T11:16:42;9.23;;;5.37;;
9238;SDS011;4654;43.242;27.976;2024-03-02T11:19:11;11.27;;;4.83;;
9238;SDS011;4654;43.242;27.976;2024-03-02T11:21:39;11.43;;;6.63;;
9238;SDS011;4654;43.242;27.976;2024-03-02T11:27:04;8.97;;;4.97;;
9238;SDS011;4654;43.242;27.976;2024-03-02T11:29:45;10.90;;;5.03;;
9238;SDS011;4654;43.242;27.976;2024-03-02T11:32:16;8.03;;;4.67;;
9238;SDS011;4654;43.242;27.976;2024-03-02T11:34:48;10.90;;;5.10;;
9238;SDS011;4654;43.242;27.976;2024-03-02T11:37:16;11.87;;;5.23;;
9238;SDS011;4654;43.242;27.976;2024-03-02T11:39:45;11.93;;;4.60;;
9238;SDS011;4654;43.242;27.976;2024-03-02T11:42:15;11.47;;;5.43;;
9238;SDS011;4654;43.242;27.976;2024-03-02T11:44:42;21.47;;;9.57;;
9238;SDS011;4654;43.242;27.976;2024-03-02T11:47:12;10.57;;;6.80;;
9238;SDS011;4654;43.242;27.976;2024-03-02T11:49:44;9.33;;;4.87;;
9238;SDS011;4654;43.242;27.976;2024-03-02T11:52:13;14.10;;;6.77;;
9238;SDS011;4654;43.242;27.976;2024-03-02T11:54:41;14.37;;;7.50;;
9238;SDS011;4654;43.242;27.976;2024-03-02T11:57:16;17.60;;;5.83;;
9238;SDS011;4654;43.242;27.976;2024-03-02T11:59:44;8.50;;;4.97;;
9238;SDS011;4654;43.242;27.976;2024-03-02T12:02:15;9.70;;;5.03;;
9238;SDS011;4654;43.242;27.976;2024-03-02T12:04:44;10.33;;;5.67;;
9238;SDS011;4654;43.242;27.976;2024-03-02T12:07:13;10.03;;;5.90;;
9238;SDS011;4654;43.242;27.976;2024-03-02T12:09:46;9.83;;;4.80;;
9238;SDS011;4654;43.242;27.976;2024-03-02T12:12:15;8.80;;;5.23;;
9238;SDS011;4654;43.242;27.976;2024-03-02T12:14:50;10.33;;;5.73;;
9238;SDS011;4654;43.242;27.976;2024-03-02T12:17:18;10.77;;;5.43;;
9238;SDS011;4654;43.242;27.976;2024-03-02T12:19:45;11.50;;;5.47;;
9238;SDS011;4654;43.242;27.976;2024-03-02T12:22:12;8.17;;;5.27;;
9238;SDS011;4654;43.242;27.976;2024-03-02T12:24:41;14.17;;;6.33;;
9238;SDS011;4654;43.242;27.976;2024-03-02T12:27:10;11.50;;;5.87;;
9238;SDS011;4654;43.242;27.976;2024-03-02T12:29:40;17.37;;;7.10;;
9238;SDS011;4654;43.242;27.976;2024-03-02T12:32:07;11.17;;;5.77;;
9238;SDS011;4654;43.242;27.976;2024-03-02T12:34:35;7.57;;;4.87;;
9238;SDS011;4654;43.242;27.976;2024-03-02T12:37:04;13.90;;;4.87;;
9238;SDS011;4654;43.242;27.976;2024-03-02T12:39:31;12.53;;;5.27;;
9238;SDS011;4654;43.242;27.976;2024-03-02T12:41:58;9.67;;;5.40;;
9238;SDS011;4654;43.242;27.976;2024-03-02T12:44:25;9.70;;;4.97;;
9238;SDS011;4654;43.242;27.976;2024-03-02T12:46:54;13.70;;;5.70;;
9238;SDS011;4654;43.242;27.976;2024-03-02T12:49:22;11.73;;;6.83;;
9238;SDS011;4654;43.242;27.976;2024-03-02T12:51:49;11.13;;;5.73;;
9238;SDS011;4654;43.242;27.976;2024-03-02T12:54:21;11.20;;;5.80;;
9238;SDS011;4654;43.242;27.976;2024-03-02T12:56:50;10.37;;;5.63;;
9238;SDS011;4654;43.242;27.976;2024-03-02T12:59:19;13.33;;;5.97;;
9238;SDS011;4654;43.242;27.976;2024-03-02T13:01:51;9.70;;;5.97;;
9238;SDS011;4654;43.242;27.976;2024-03-02T13:04:23;11.47;;;6.23;;
9238;SDS011;4654;43.242;27.976;2024-03-02T13:06:51;12.03;;;6.60;;
9238;SDS011;4654;43.242;27.976;2024-03-02T13:09:18;12.30;;;6.77;;
9238;SDS011;4654;43.242;27.976;2024-03-02T13:11:46;13.43;;;6.47;;
9238;SDS011;4654;43.242;27.976;2024-03-02T13:14:13;13.23;;;6.30;;
9238;SDS011;4654;43.242;27.976;2024-03-02T13:16:41;9.07;;;6.27;;
9238;SDS011;4654;43.242;27.976;2024-03-02T13:19:08;12.00;;;6.60;;
9238;SDS011;4654;43.242;27.976;2024-03-02T13:21:37;10.83;;;6.43;;
9238;SDS011;4654;43.242;27.976;2024-03-02T13:24:05;14.33;;;7.03;;
9238;SDS011;4654;43.242;27.976;2024-03-02T13:26:33;8.50;;;6.77;;
9238;SDS011;4654;43.242;27.976;2024-03-02T13:29:01;13.97;;;6.90;;
9238;SDS011;4654;43.242;27.976;2024-03-02T13:31:28;15.57;;;7.27;;
9238;SDS011;4654;43.242;27.976;2024-03-02T13:33:55;11.40;;;6.70;;
9238;SDS011;4654;43.242;27.976;2024-03-02T13:36:22;10.90;;;7.10;;
9238;SDS011;4654;43.242;27.976;2024-03-02T13:38:51;10.00;;;6.47;;
9238;SDS011;4654;43.242;27.976;2024-03-02T13:41:18;11.17;;;6.47;;
9238;SDS011;4654;43.242;27.976;2024-03-02T13:43:46;8.13;;;6.33;;
9238;SDS011;4654;43.242;27.976;2024-03-02T13:46:13;12.83;;;6.70;;
9238;SDS011;4654;43.242;27.976;2024-03-02T13:48:40;11.47;;;6.90;;
9238;SDS011;4654;43.242;27.976;2024-03-02T13:51:08;11.10;;;6.10;;
9238;SDS011;4654;43.242;27.976;2024-03-02T13:53:35;12.27;;;6.23;;
9238;SDS011;4654;43.242;27.976;2024-03-02T13:56:04;11.57;;;6.53;;
9238;SDS011;4654;43.242;27.976;2024-03-02T13:58:32;14.67;;;6.40;;
9238;SDS011;4654;43.242;27.976;2024-03-02T14:00:59;13.33;;;6.63;;
9238;SDS011;4654;43.242;27.976;2024-03-02T14:03:26;10.50;;;7.17;;
9238;SDS011;4654;43.242;27.976;2024-03-02T14:05:54;12.70;;;7.30;;
9238;SDS011;4654;43.242;27.976;2024-03-02T14:08:21;13.63;;;6.80;;
9238;SDS011;4654;43.242;27.976;2024-03-02T14:10:48;12.80;;;7.13;;
9238;SDS011;4654;43.242;27.976;2024-03-02T14:13:17;13.80;;;7.27;;
9238;SDS011;4654;43.242;27.976;2024-03-02T14:15:45;10.53;;;6.67;;
9238;SDS011;4654;43.242;27.976;2024-03-02T14:18:12;11.07;;;6.43;;
9238;SDS011;4654;43.242;27.976;2024-03-02T14:20:39;11.33;;;7.03;;
9238;SDS011;4654;43.242;27.976;2024-03-02T14:23:07;12.40;;;7.17;;
9238;SDS011;4654;43.242;27.976;2024-03-02T14:25:35;11.67;;;6.63;;
9238;SDS011;4654;43.242;27.976;2024-03-02T14:28:02;13.70;;;6.77;;
9238;SDS011;4654;43.242;27.976;2024-03-02T14:30:31;18.43;;;7.13;;
9238;SDS011;4654;43.242;27.976;2024-03-02T14:32:59;13.77;;;6.77;;
9238;SDS011;4654;43.242;27.976;2024-03-02T14:35:26;12.20;;;6.70;;
9238;SDS011;4654;43.242;27.976;2024-03-02T14:37:53;12.60;;;7.20;;
9238;SDS011;4654;43.242;27.976;2024-03-02T14:40:22;14.00;;;7.10;;
9238;SDS011;4654;43.242;27.976;2024-03-02T14:42:54;11.60;;;6.80;;
9238;SDS011;4654;43.242;27.976;2024-03-02T14:45:21;17.07;;;7.13;;
9238;SDS011;4654;43.242;27.976;2024-03-02T14:47:50;17.50;;;7.43;;
9238;SDS011;4654;43.242;27.976;2024-03-02T14:50:19;11.30;;;7.60;;
9238;SDS011;4654;43.242;27.976;2024-03-02T14:52:46;15.40;;;8.33;;
9238;SDS011;4654;43.242;27.976;2024-03-02T14:55:13;12.27;;;7.67;;
9238;SDS011;4654;43.242;27.976;2024-03-02T14:57:41;11.30;;;7.27;;
9238;SDS011;4654;43.242;27.976;2024-03-02T15:00:09;16.40;;;7.30;;
9238;SDS011;4654;43.242;27.976;2024-03-02T15:02:37;12.07;;;7.63;;